sensor_id;sensor_type;location;lat;lon;timestamp;temperature;humidity
22966;DHT22;11649;48.090;9.754;2022-07-29T00:00:56;18.20;99.90
22966;DHT22;11649;48.090;9.754;2022-07-29T00:03:23;18.50;99.90
22966;DHT22;11649;48.090;9.754;2022-07-29T00:05:50;18.30;99.90
22966;DHT22;11649;48.090;9.754;2022-07-29T00:08:19;18.50;99.90
22966;DHT22;11649;48.090;9.754;2022-07-29T00:10:46;18.30;99.90
22966;DHT22;11649;48.090;9.754;2022-07-29T00:13:13;18.30;99.90
22966;DHT22;11649;48.090;9.754;2022-07-29T00:15:40;18.80;99.90
22966;DHT22;11649;48.090;9.754;2022-07-29T00:18:07;18.40;99.90
22966;DHT22;11649;48.090;9.754;2022-07-29T00:20:34;18.50;99.90
22966;DHT22;11649;48.090;9.754;2022-07-29T00:23:01;18.40;99.90
22966;DHT22;11649;48.090;9.754;2022-07-29T00:25:28;18.40;99.90
22966;DHT22;11649;48.090;9.754;2022-07-29T00:27:54;19.30;99.90
22966;DHT22;11649;48.090;9.754;2022-07-29T00:30:22;18.50;99.90
22966;DHT22;11649;48.090;9.754;2022-07-29T00:32:48;18.40;99.90
22966;DHT22;11649;48.090;9.754;2022-07-29T00:35:15;18.10;99.90
22966;DHT22;11649;48.090;9.754;2022-07-29T00:38:00;18.30;99.90
22966;DHT22;11649;48.090;9.754;2022-07-29T00:40:27;17.90;99.90
22966;DHT22;11649;48.090;9.754;2022-07-29T00:42:54;17.80;99.90
22966;DHT22;11649;48.090;9.754;2022-07-29T00:45:21;18.00;99.90
22966;DHT22;11649;48.090;9.754;2022-07-29T00:47:48;18.20;99.90
22966;DHT22;11649;48.090;9.754;2022-07-29T00:50:16;18.10;99.90
22966;DHT22;11649;48.090;9.754;2022-07-29T00:52:43;17.80;99.90
22966;DHT22;11649;48.090;9.754;2022-07-29T00:55:14;17.80;99.90
22966;DHT22;11649;48.090;9.754;2022-07-29T00:57:43;17.70;99.90
22966;DHT22;11649;48.090;9.754;2022-07-29T01:00:23;18.00;99.90
22966;DHT22;11649;48.090;9.754;2022-07-29T01:02:50;17.90;99.90
22966;DHT22;11649;48.090;9.754;2022-07-29T01:05:19;17.90;99.90
22966;DHT22;11649;48.090;9.754;2022-07-29T01:07:48;18.40;99.90
22966;DHT22;11649;48.090;9.754;2022-07-29T01:10:16;17.90;99.90
22966;DHT22;11649;48.090;9.754;2022-07-29T01:12:46;18.20;99.90
22966;DHT22;11649;48.090;9.754;2022-07-29T01:15:14;18.10;99.90
22966;DHT22;11649;48.090;9.754;2022-07-29T01:17:50;18.20;99.90
22966;DHT22;11649;48.090;9.754;2022-07-29T01:20:40;17.90;99.90
22966;DHT22;11649;48.090;9.754;2022-07-29T01:26:31;17.80;99.90
22966;DHT22;11649;48.090;9.754;2022-07-29T01:29:03;17.80;99.90
22966;DHT22;11649;48.090;9.754;2022-07-29T01:40:22;17.70;99.90
22966;DHT22;11649;48.090;9.754;2022-07-29T01:42:58;17.80;99.90
22966;DHT22;11649;48.090;9.754;2022-07-29T01:45:41;17.70;99.90
22966;DHT22;11649;48.090;9.754;2022-07-29T01:48:19;17.60;99.90
22966;DHT22;11649;48.090;9.754;2022-07-29T01:50:55;17.60;99.90
22966;DHT22;11649;48.090;9.754;2022-07-29T01:53:31;17.60;99.90
22966;DHT22;11649;48.090;9.754;2022-07-29T01:56:03;17.50;99.90
22966;DHT22;11649;48.090;9.754;2022-07-29T01:58:32;17.60;99.90
22966;DHT22;11649;48.090;9.754;2022-07-29T02:00:59;17.30;99.90
22966;DHT22;11649;48.090;9.754;2022-07-29T02:03:27;17.80;99.90
22966;DHT22;11649;48.090;9.754;2022-07-29T02:05:56;17.40;99.90
22966;DHT22;11649;48.090;9.754;2022-07-29T02:08:25;17.40;99.90
22966;DHT22;11649;48.090;9.754;2022-07-29T02:10:52;17.60;99.90
22966;DHT22;11649;48.090;9.754;2022-07-29T02:13:20;18.00;99.90
22966;DHT22;11649;48.090;9.754;2022-07-29T02:15:50;17.00;99.90
22966;DHT22;11649;48.090;9.754;2022-07-29T02:18:19;17.00;99.90
22966;DHT22;11649;48.090;9.754;2022-07-29T02:20:49;17.10;99.90
22966;DHT22;11649;48.090;9.754;2022-07-29T02:23:22;17.30;99.90
22966;DHT22;11649;48.090;9.754;2022-07-29T02:25:52;17.20;99.90
22966;DHT22;11649;48.090;9.754;2022-07-29T02:28:22;17.10;99.90
22966;DHT22;11649;48.090;9.754;2022-07-29T02:30:52;16.90;99.90
22966;DHT22;11649;48.090;9.754;2022-07-29T02:33:20;16.90;99.90
22966;DHT22;11649;48.090;9.754;2022-07-29T02:35:49;17.40;99.90
22966;DHT22;11649;48.090;9.754;2022-07-29T02:38:18;16.70;99.90
22966;DHT22;11649;48.090;9.754;2022-07-29T02:41:08;17.00;99.90
22966;DHT22;11649;48.090;9.754;2022-07-29T02:43:38;16.80;99.90
22966;DHT22;11649;48.090;9.754;2022-07-29T02:46:08;16.60;99.90
22966;DHT22;11649;48.090;9.754;2022-07-29T02:52:01;16.70;99.90
22966;DHT22;11649;48.090;9.754;2022-07-29T02:54:55;17.00;99.90
22966;DHT22;11649;48.090;9.754;2022-07-29T02:57:33;17.00;99.90
22966;DHT22;11649;48.090;9.754;2022-07-29T03:00:21;17.10;99.90
22966;DHT22;11649;48.090;9.754;2022-07-29T03:02:52;17.20;99.90
22966;DHT22;11649;48.090;9.754;2022-07-29T03:05:21;17.10;99.90
22966;DHT22;11649;48.090;9.754;2022-07-29T03:08:01;17.10;99.90
22966;DHT22;11649;48.090;9.754;2022-07-29T03:10:30;17.10;99.90
22966;DHT22;11649;48.090;9.754;2022-07-29T03:12:58;17.20;99.90
22966;DHT22;11649;48.090;9.754;2022-07-29T03:15:27;17.40;99.90
22966;DHT22;11649;48.090;9.754;2022-07-29T03:17:54;17.90;99.90
22966;DHT22;11649;48.090;9.754;2022-07-29T03:20:22;17.40;99.90
22966;DHT22;11649;48.090;9.754;2022-07-29T03:22:50;17.20;99.90
22966;DHT22;11649;48.090;9.754;2022-07-29T03:25:19;16.90;99.90
22966;DHT22;11649;48.090;9.754;2022-07-29T03:27:47;16.60;99.90
22966;DHT22;11649;48.090;9.754;2022-07-29T03:30:16;16.70;99.90
22966;DHT22;11649;48.090;9.754;2022-07-29T03:32:49;16.70;99.90
22966;DHT22;11649;48.090;9.754;2022-07-29T03:35:21;17.30;99.90
22966;DHT22;11649;48.090;9.754;2022-07-29T03:37:48;16.70;99.90
22966;DHT22;11649;48.090;9.754;2022-07-29T03:40:19;17.10;99.90
22966;DHT22;11649;48.090;9.754;2022-07-29T03:42:49;16.80;99.90
22966;DHT22;11649;48.090;9.754;2022-07-29T03:45:18;16.90;99.90
22966;DHT22;11649;48.090;9.754;2022-07-29T03:47:50;16.60;99.90
22966;DHT22;11649;48.090;9.754;2022-07-29T03:50:25;16.50;99.90
22966;DHT22;11649;48.090;9.754;2022-07-29T03:52:52;16.90;99.90
22966;DHT22;11649;48.090;9.754;2022-07-29T03:55:19;17.00;99.90
22966;DHT22;11649;48.090;9.754;2022-07-29T03:57:46;16.60;99.90
22966;DHT22;11649;48.090;9.754;2022-07-29T04:00:15;17.40;99.90
22966;DHT22;11649;48.090;9.754;2022-07-29T04:02:43;16.50;99.90
22966;DHT22;11649;48.090;9.754;2022-07-29T04:05:15;16.80;99.90
22966;DHT22;11649;48.090;9.754;2022-07-29T04:07:46;17.50;99.90
22966;DHT22;11649;48.090;9.754;2022-07-29T04:10:16;16.50;99.90
22966;DHT22;11649;48.090;9.754;2022-07-29T04:12:58;16.50;99.90
22966;DHT22;11649;48.090;9.754;2022-07-29T04:15:25;16.50;99.90
22966;DHT22;11649;48.090;9.754;2022-07-29T04:17:57;16.40;99.90
22966;DHT22;11649;48.090;9.754;2022-07-29T04:20:24;16.70;99.90
22966;DHT22;11649;48.090;9.754;2022-07-29T04:22:51;16.80;99.90
22966;DHT22;11649;48.090;9.754;2022-07-29T04:25:17;16.50;99.90
22966;DHT22;11649;48.090;9.754;2022-07-29T04:27:44;16.00;99.90
22966;DHT22;11649;48.090;9.754;2022-07-29T04:30:31;16.00;99.90
22966;DHT22;11649;48.090;9.754;2022-07-29T04:32:58;16.30;99.90
22966;DHT22;11649;48.090;9.754;2022-07-29T04:35:25;16.70;99.90
22966;DHT22;11649;48.090;9.754;2022-07-29T04:37:52;16.50;99.90
22966;DHT22;11649;48.090;9.754;2022-07-29T04:40:19;16.30;99.90
22966;DHT22;11649;48.090;9.754;2022-07-29T04:42:46;16.40;99.90
22966;DHT22;11649;48.090;9.754;2022-07-29T04:45:15;16.90;99.90
22966;DHT22;11649;48.090;9.754;2022-07-29T04:47:47;16.40;99.90
22966;DHT22;11649;48.090;9.754;2022-07-29T04:50:14;16.80;99.90
22966;DHT22;11649;48.090;9.754;2022-07-29T04:52:41;16.50;99.90
22966;DHT22;11649;48.090;9.754;2022-07-29T04:55:08;17.20;99.90
22966;DHT22;11649;48.090;9.754;2022-07-29T04:57:35;16.60;99.90
22966;DHT22;11649;48.090;9.754;2022-07-29T05:00:03;16.70;99.90
22966;DHT22;11649;48.090;9.754;2022-07-29T05:02:31;16.80;99.90
22966;DHT22;11649;48.090;9.754;2022-07-29T05:04:58;17.10;99.90
22966;DHT22;11649;48.090;9.754;2022-07-29T05:07:24;17.00;99.90
22966;DHT22;11649;48.090;9.754;2022-07-29T05:09:51;17.20;99.90
22966;DHT22;11649;48.090;9.754;2022-07-29T05:12:19;17.40;99.90
22966;DHT22;11649;48.090;9.754;2022-07-29T05:14:46;17.60;99.90
22966;DHT22;11649;48.090;9.754;2022-07-29T05:17:12;17.10;99.90
22966;DHT22;11649;48.090;9.754;2022-07-29T05:19:39;17.30;99.90
22966;DHT22;11649;48.090;9.754;2022-07-29T05:22:06;17.20;99.90
22966;DHT22;11649;48.090;9.754;2022-07-29T05:24:33;17.40;99.90
22966;DHT22;11649;48.090;9.754;2022-07-29T05:27:00;17.30;99.90
22966;DHT22;11649;48.090;9.754;2022-07-29T05:29:27;17.50;99.90
22966;DHT22;11649;48.090;9.754;2022-07-29T05:32:11;17.20;99.90
22966;DHT22;11649;48.090;9.754;2022-07-29T05:34:38;17.30;99.90
22966;DHT22;11649;48.090;9.754;2022-07-29T05:37:18;17.30;99.90
22966;DHT22;11649;48.090;9.754;2022-07-29T05:39:45;17.30;99.90
22966;DHT22;11649;48.090;9.754;2022-07-29T05:42:22;17.90;99.90
22966;DHT22;11649;48.090;9.754;2022-07-29T05:44:49;17.50;99.90
22966;DHT22;11649;48.090;9.754;2022-07-29T05:47:16;17.60;99.90
22966;DHT22;11649;48.090;9.754;2022-07-29T05:49:43;17.90;99.90
22966;DHT22;11649;48.090;9.754;2022-07-29T05:52:10;18.30;99.90
22966;DHT22;11649;48.090;9.754;2022-07-29T05:54:37;17.60;99.90
22966;DHT22;11649;48.090;9.754;2022-07-29T05:57:04;17.60;99.90
22966;DHT22;11649;48.090;9.754;2022-07-29T05:59:37;17.70;99.90
22966;DHT22;11649;48.090;9.754;2022-07-29T06:02:04;17.60;99.90
22966;DHT22;11649;48.090;9.754;2022-07-29T06:04:32;17.80;99.90
22966;DHT22;11649;48.090;9.754;2022-07-29T06:07:00;17.60;99.90
22966;DHT22;11649;48.090;9.754;2022-07-29T06:09:28;17.70;99.90
22966;DHT22;11649;48.090;9.754;2022-07-29T06:11:55;17.90;99.90
22966;DHT22;11649;48.090;9.754;2022-07-29T06:14:22;17.80;99.90
22966;DHT22;11649;48.090;9.754;2022-07-29T06:16:49;17.70;99.90
22966;DHT22;11649;48.090;9.754;2022-07-29T06:19:16;17.70;99.90
22966;DHT22;11649;48.090;9.754;2022-07-29T06:21:43;17.60;99.90
22966;DHT22;11649;48.090;9.754;2022-07-29T06:24:11;17.60;99.90
22966;DHT22;11649;48.090;9.754;2022-07-29T06:26:40;17.60;99.90
22966;DHT22;11649;48.090;9.754;2022-07-29T06:29:08;17.60;99.90
22966;DHT22;11649;48.090;9.754;2022-07-29T06:31:34;17.60;99.90
22966;DHT22;11649;48.090;9.754;2022-07-29T06:34:01;17.80;99.90
22966;DHT22;11649;48.090;9.754;2022-07-29T06:36:29;17.70;99.90
22966;DHT22;11649;48.090;9.754;2022-07-29T06:38:56;17.80;99.90
22966;DHT22;11649;48.090;9.754;2022-07-29T06:41:23;17.70;99.90
22966;DHT22;11649;48.090;9.754;2022-07-29T06:43:50;17.90;99.90
22966;DHT22;11649;48.090;9.754;2022-07-29T06:46:22;17.90;99.90
22966;DHT22;11649;48.090;9.754;2022-07-29T06:48:50;18.00;99.90
22966;DHT22;11649;48.090;9.754;2022-07-29T06:51:18;18.10;99.90
22966;DHT22;11649;48.090;9.754;2022-07-29T06:53:50;17.90;99.90
22966;DHT22;11649;48.090;9.754;2022-07-29T06:56:29;18.20;99.90
22966;DHT22;11649;48.090;9.754;2022-07-29T06:58:57;18.20;99.90
22966;DHT22;11649;48.090;9.754;2022-07-29T07:01:26;18.60;99.90
22966;DHT22;11649;48.090;9.754;2022-07-29T07:03:55;18.60;99.90
22966;DHT22;11649;48.090;9.754;2022-07-29T07:06:22;18.70;99.90
22966;DHT22;11649;48.090;9.754;2022-07-29T07:08:49;18.70;99.90
22966;DHT22;11649;48.090;9.754;2022-07-29T07:11:16;18.60;99.90
22966;DHT22;11649;48.090;9.754;2022-07-29T07:13:43;18.80;99.90
22966;DHT22;11649;48.090;9.754;2022-07-29T07:16:10;18.80;99.90
22966;DHT22;11649;48.090;9.754;2022-07-29T07:18:37;18.70;99.90
22966;DHT22;11649;48.090;9.754;2022-07-29T07:21:04;18.80;99.90
22966;DHT22;11649;48.090;9.754;2022-07-29T07:23:32;18.90;99.90
22966;DHT22;11649;48.090;9.754;2022-07-29T07:25:59;17.90;99.90
22966;DHT22;11649;48.090;9.754;2022-07-29T07:28:29;19.30;99.90
22966;DHT22;11649;48.090;9.754;2022-07-29T07:30:56;18.70;99.90
22966;DHT22;11649;48.090;9.754;2022-07-29T07:33:25;19.60;99.90
22966;DHT22;11649;48.090;9.754;2022-07-29T07:35:52;18.70;99.90
22966;DHT22;11649;48.090;9.754;2022-07-29T07:38:21;18.80;99.90
22966;DHT22;11649;48.090;9.754;2022-07-29T07:40:47;18.90;99.90
22966;DHT22;11649;48.090;9.754;2022-07-29T07:43:14;18.90;99.90
22966;DHT22;11649;48.090;9.754;2022-07-29T07:45:41;19.10;99.90
22966;DHT22;11649;48.090;9.754;2022-07-29T07:48:09;19.00;99.90
22966;DHT22;11649;48.090;9.754;2022-07-29T07:50:37;19.30;99.90
22966;DHT22;11649;48.090;9.754;2022-07-29T07:53:04;18.90;99.90
22966;DHT22;11649;48.090;9.754;2022-07-29T07:55:31;19.50;99.90
22966;DHT22;11649;48.090;9.754;2022-07-29T07:58:20;19.30;99.90
22966;DHT22;11649;48.090;9.754;2022-07-29T08:01:00;19.30;99.90
22966;DHT22;11649;48.090;9.754;2022-07-29T08:03:29;19.70;99.90
22966;DHT22;11649;48.090;9.754;2022-07-29T08:10:15;18.90;99.90
22966;DHT22;11649;48.090;9.754;2022-07-29T08:19:21;19.90;99.90
22966;DHT22;11649;48.090;9.754;2022-07-29T08:21:49;19.90;99.90
22966;DHT22;11649;48.090;9.754;2022-07-29T08:24:17;20.00;99.90
22966;DHT22;11649;48.090;9.754;2022-07-29T08:27:02;20.10;99.90
22966;DHT22;11649;48.090;9.754;2022-07-29T08:29:29;19.80;99.90
22966;DHT22;11649;48.090;9.754;2022-07-29T08:31:56;19.70;99.90
22966;DHT22;11649;48.090;9.754;2022-07-29T08:34:23;19.90;99.90
22966;DHT22;11649;48.090;9.754;2022-07-29T08:36:54;20.00;99.90
22966;DHT22;11649;48.090;9.754;2022-07-29T08:39:21;20.10;99.90
22966;DHT22;11649;48.090;9.754;2022-07-29T08:41:48;20.10;99.90
22966;DHT22;11649;48.090;9.754;2022-07-29T08:44:23;20.20;99.90
22966;DHT22;11649;48.090;9.754;2022-07-29T08:46:56;20.40;99.90
22966;DHT22;11649;48.090;9.754;2022-07-29T08:49:23;20.50;99.90
22966;DHT22;11649;48.090;9.754;2022-07-29T08:51:50;20.50;99.90
22966;DHT22;11649;48.090;9.754;2022-07-29T08:54:18;20.40;99.90
22966;DHT22;11649;48.090;9.754;2022-07-29T08:56:48;20.60;99.90
22966;DHT22;11649;48.090;9.754;2022-07-29T08:59:19;20.90;99.90
22966;DHT22;11649;48.090;9.754;2022-07-29T09:01:48;20.80;99.90
22966;DHT22;11649;48.090;9.754;2022-07-29T09:04:19;20.90;99.90
22966;DHT22;11649;48.090;9.754;2022-07-29T09:06:49;20.90;99.90
22966;DHT22;11649;48.090;9.754;2022-07-29T09:09:17;21.10;99.90
22966;DHT22;11649;48.090;9.754;2022-07-29T09:11:50;21.10;99.90
22966;DHT22;11649;48.090;9.754;2022-07-29T09:14:17;21.10;99.90
22966;DHT22;11649;48.090;9.754;2022-07-29T09:16:55;21.10;99.90
22966;DHT22;11649;48.090;9.754;2022-07-29T09:19:25;21.00;99.90
22966;DHT22;11649;48.090;9.754;2022-07-29T09:21:53;21.00;99.90
22966;DHT22;11649;48.090;9.754;2022-07-29T09:24:46;20.70;99.90
22966;DHT22;11649;48.090;9.754;2022-07-29T09:27:25;20.70;99.90
22966;DHT22;11649;48.090;9.754;2022-07-29T09:32:27;20.60;99.90
22966;DHT22;11649;48.090;9.754;2022-07-29T09:35:16;20.50;99.90
22966;DHT22;11649;48.090;9.754;2022-07-29T09:37:44;20.60;99.90
22966;DHT22;11649;48.090;9.754;2022-07-29T09:40:17;20.70;99.90
22966;DHT22;11649;48.090;9.754;2022-07-29T09:42:45;20.80;99.90
22966;DHT22;11649;48.090;9.754;2022-07-29T09:45:13;20.90;99.90
22966;DHT22;11649;48.090;9.754;2022-07-29T09:47:52;21.00;99.90
22966;DHT22;11649;48.090;9.754;2022-07-29T09:50:20;21.00;99.90
22966;DHT22;11649;48.090;9.754;2022-07-29T09:52:52;21.00;99.90
22966;DHT22;11649;48.090;9.754;2022-07-29T09:55:20;21.00;99.90
22966;DHT22;11649;48.090;9.754;2022-07-29T09:57:47;21.00;99.90
22966;DHT22;11649;48.090;9.754;2022-07-29T10:00:17;21.10;99.90
22966;DHT22;11649;48.090;9.754;2022-07-29T10:02:46;21.00;99.90
22966;DHT22;11649;48.090;9.754;2022-07-29T10:05:31;21.00;99.90
22966;DHT22;11649;48.090;9.754;2022-07-29T10:08:02;21.00;99.90
22966;DHT22;11649;48.090;9.754;2022-07-29T10:10:31;21.00;99.90
22966;DHT22;11649;48.090;9.754;2022-07-29T10:13:08;21.30;99.90
22966;DHT22;11649;48.090;9.754;2022-07-29T10:15:43;21.30;99.90
22966;DHT22;11649;48.090;9.754;2022-07-29T10:18:13;21.40;99.90
22966;DHT22;11649;48.090;9.754;2022-07-29T10:20:41;21.30;99.90
22966;DHT22;11649;48.090;9.754;2022-07-29T10:23:09;21.30;99.90
22966;DHT22;11649;48.090;9.754;2022-07-29T10:25:36;21.30;99.90
22966;DHT22;11649;48.090;9.754;2022-07-29T10:28:02;21.40;99.90
22966;DHT22;11649;48.090;9.754;2022-07-29T10:30:31;21.50;99.90
22966;DHT22;11649;48.090;9.754;2022-07-29T10:33:21;21.60;99.90
22966;DHT22;11649;48.090;9.754;2022-07-29T10:38:53;21.70;99.90
22966;DHT22;11649;48.090;9.754;2022-07-29T10:44:29;21.90;99.90
22966;DHT22;11649;48.090;9.754;2022-07-29T10:46:57;21.80;99.90
22966;DHT22;11649;48.090;9.754;2022-07-29T10:49:26;21.90;99.90
22966;DHT22;11649;48.090;9.754;2022-07-29T10:52:06;22.00;99.90
22966;DHT22;11649;48.090;9.754;2022-07-29T10:59:49;22.00;99.90
22966;DHT22;11649;48.090;9.754;2022-07-29T11:05:16;22.00;99.90
22966;DHT22;11649;48.090;9.754;2022-07-29T11:10:49;21.80;99.90
22966;DHT22;11649;48.090;9.754;2022-07-29T11:16:16;21.50;99.90
22966;DHT22;11649;48.090;9.754;2022-07-29T11:21:44;21.40;99.90
22966;DHT22;11649;48.090;9.754;2022-07-29T11:24:28;21.40;99.90
22966;DHT22;11649;48.090;9.754;2022-07-29T11:29:51;21.30;99.90
22966;DHT22;11649;48.090;9.754;2022-07-29T11:32:20;21.40;99.90
22966;DHT22;11649;48.090;9.754;2022-07-29T11:35:10;21.40;99.90
22966;DHT22;11649;48.090;9.754;2022-07-29T11:38:23;21.30;99.90
22966;DHT22;11649;48.090;9.754;2022-07-29T11:40:36;21.30;99.90
22966;DHT22;11649;48.090;9.754;2022-07-29T11:43:08;21.20;99.90
22966;DHT22;11649;48.090;9.754;2022-07-29T11:45:46;21.30;99.90
22966;DHT22;11649;48.090;9.754;2022-07-29T11:48:18;21.40;99.90
22966;DHT22;11649;48.090;9.754;2022-07-29T11:50:58;21.20;99.90
22966;DHT22;11649;48.090;9.754;2022-07-29T11:53:25;21.20;99.90
22966;DHT22;11649;48.090;9.754;2022-07-29T11:56:13;21.30;99.90
22966;DHT22;11649;48.090;9.754;2022-07-29T11:58:42;21.30;99.90
22966;DHT22;11649;48.090;9.754;2022-07-29T12:01:13;21.40;99.90
22966;DHT22;11649;48.090;9.754;2022-07-29T12:03:43;21.40;99.90
22966;DHT22;11649;48.090;9.754;2022-07-29T12:06:14;21.50;99.90
22966;DHT22;11649;48.090;9.754;2022-07-29T12:08:46;21.50;99.90
22966;DHT22;11649;48.090;9.754;2022-07-29T12:11:18;21.50;99.90
22966;DHT22;11649;48.090;9.754;2022-07-29T12:13:48;21.50;99.90
22966;DHT22;11649;48.090;9.754;2022-07-29T12:16:15;21.50;99.90
22966;DHT22;11649;48.090;9.754;2022-07-29T12:18:59;21.70;99.90
22966;DHT22;11649;48.090;9.754;2022-07-29T12:21:50;22.00;99.90
22966;DHT22;11649;48.090;9.754;2022-07-29T12:24:25;22.10;99.90
22966;DHT22;11649;48.090;9.754;2022-07-29T12:26:55;22.10;99.90
22966;DHT22;11649;48.090;9.754;2022-07-29T12:29:23;22.20;99.90
22966;DHT22;11649;48.090;9.754;2022-07-29T12:32:01;22.30;99.90
22966;DHT22;11649;48.090;9.754;2022-07-29T12:34:28;22.50;99.90
22966;DHT22;11649;48.090;9.754;2022-07-29T12:36:56;22.70;99.90
22966;DHT22;11649;48.090;9.754;2022-07-29T12:39:23;23.00;99.90
22966;DHT22;11649;48.090;9.754;2022-07-29T12:41:53;23.00;99.90
22966;DHT22;11649;48.090;9.754;2022-07-29T12:44:51;23.20;99.90
22966;DHT22;11649;48.090;9.754;2022-07-29T12:47:19;23.60;99.90
22966;DHT22;11649;48.090;9.754;2022-07-29T12:49:47;23.90;99.90
22966;DHT22;11649;48.090;9.754;2022-07-29T12:52:31;23.90;99.90
22966;DHT22;11649;48.090;9.754;2022-07-29T12:54:59;24.00;97.10
22966;DHT22;11649;48.090;9.754;2022-07-29T12:57:26;24.10;97.20
22966;DHT22;11649;48.090;9.754;2022-07-29T13:00:02;24.20;99.90
22966;DHT22;11649;48.090;9.754;2022-07-29T13:02:29;24.50;97.60
22966;DHT22;11649;48.090;9.754;2022-07-29T13:04:57;24.80;89.20
22966;DHT22;11649;48.090;9.754;2022-07-29T13:07:26;25.00;91.00
22966;DHT22;11649;48.090;9.754;2022-07-29T13:10:15;25.30;85.60
22966;DHT22;11649;48.090;9.754;2022-07-29T13:15:29;25.60;79.40
22966;DHT22;11649;48.090;9.754;2022-07-29T13:17:56;25.90;75.60
22966;DHT22;11649;48.090;9.754;2022-07-29T13:20:28;26.00;72.90
22966;DHT22;11649;48.090;9.754;2022-07-29T13:22:59;25.90;79.20
22966;DHT22;11649;48.090;9.754;2022-07-29T13:25:31;25.60;72.00
22966;DHT22;11649;48.090;9.754;2022-07-29T13:27:59;25.10;81.40
22966;DHT22;11649;48.090;9.754;2022-07-29T13:30:26;24.80;88.50
22966;DHT22;11649;48.090;9.754;2022-07-29T13:32:53;24.80;79.20
22966;DHT22;11649;48.090;9.754;2022-07-29T13:35:20;24.70;75.70
22966;DHT22;11649;48.090;9.754;2022-07-29T13:37:47;24.50;84.80
22966;DHT22;11649;48.090;9.754;2022-07-29T13:40:17;24.60;77.90
22966;DHT22;11649;48.090;9.754;2022-07-29T13:42:44;24.60;78.40
22966;DHT22;11649;48.090;9.754;2022-07-29T13:45:12;24.70;73.40
22966;DHT22;11649;48.090;9.754;2022-07-29T13:47:39;24.60;80.30
22966;DHT22;11649;48.090;9.754;2022-07-29T13:50:13;24.80;74.80
22966;DHT22;11649;48.090;9.754;2022-07-29T13:52:40;25.30;69.80
22966;DHT22;11649;48.090;9.754;2022-07-29T13:55:07;25.50;70.10
22966;DHT22;11649;48.090;9.754;2022-07-29T13:57:34;25.20;72.60
22966;DHT22;11649;48.090;9.754;2022-07-29T14:00:02;24.90;71.90
22966;DHT22;11649;48.090;9.754;2022-07-29T14:02:29;25.10;69.80
22966;DHT22;11649;48.090;9.754;2022-07-29T14:04:55;24.90;74.30
22966;DHT22;11649;48.090;9.754;2022-07-29T14:07:22;24.80;75.20
22966;DHT22;11649;48.090;9.754;2022-07-29T14:09:50;24.60;83.10
22966;DHT22;11649;48.090;9.754;2022-07-29T14:12:17;24.70;76.40
22966;DHT22;11649;48.090;9.754;2022-07-29T14:14:44;24.70;76.40
22966;DHT22;11649;48.090;9.754;2022-07-29T14:17:13;24.40;78.20
22966;DHT22;11649;48.090;9.754;2022-07-29T14:19:40;24.40;74.50
22966;DHT22;11649;48.090;9.754;2022-07-29T14:22:08;24.30;80.90
22966;DHT22;11649;48.090;9.754;2022-07-29T14:24:36;24.20;78.00
22966;DHT22;11649;48.090;9.754;2022-07-29T14:27:07;24.20;80.30
22966;DHT22;11649;48.090;9.754;2022-07-29T14:29:34;24.30;75.00
22966;DHT22;11649;48.090;9.754;2022-07-29T14:32:07;24.30;78.80
22966;DHT22;11649;48.090;9.754;2022-07-29T14:34:35;24.10;78.10
22966;DHT22;11649;48.090;9.754;2022-07-29T14:37:03;23.90;81.90
22966;DHT22;11649;48.090;9.754;2022-07-29T14:39:32;23.70;80.40
22966;DHT22;11649;48.090;9.754;2022-07-29T14:42:05;23.50;88.20
22966;DHT22;11649;48.090;9.754;2022-07-29T14:44:31;23.50;89.00
22966;DHT22;11649;48.090;9.754;2022-07-29T14:46:59;23.40;89.30
22966;DHT22;11649;48.090;9.754;2022-07-29T14:49:34;23.20;90.30
22966;DHT22;11649;48.090;9.754;2022-07-29T14:52:01;23.00;85.50
22966;DHT22;11649;48.090;9.754;2022-07-29T14:54:28;22.90;81.10
22966;DHT22;11649;48.090;9.754;2022-07-29T14:56:55;22.70;73.20
22966;DHT22;11649;48.090;9.754;2022-07-29T14:59:24;22.50;87.50
22966;DHT22;11649;48.090;9.754;2022-07-29T15:01:51;22.10;99.00
22966;DHT22;11649;48.090;9.754;2022-07-29T15:04:19;21.70;99.90
22966;DHT22;11649;48.090;9.754;2022-07-29T15:06:45;21.30;99.90
22966;DHT22;11649;48.090;9.754;2022-07-29T15:09:12;21.20;99.90
22966;DHT22;11649;48.090;9.754;2022-07-29T15:11:39;21.20;99.90
22966;DHT22;11649;48.090;9.754;2022-07-29T15:14:06;21.00;99.90
22966;DHT22;11649;48.090;9.754;2022-07-29T15:16:35;21.00;99.90
22966;DHT22;11649;48.090;9.754;2022-07-29T15:19:03;20.70;99.90
22966;DHT22;11649;48.090;9.754;2022-07-29T15:21:30;20.50;99.90
22966;DHT22;11649;48.090;9.754;2022-07-29T15:23:57;20.20;99.90
22966;DHT22;11649;48.090;9.754;2022-07-29T15:26:24;19.90;99.90
22966;DHT22;11649;48.090;9.754;2022-07-29T15:28:51;19.80;99.90
22966;DHT22;11649;48.090;9.754;2022-07-29T15:31:17;19.60;99.90
22966;DHT22;11649;48.090;9.754;2022-07-29T15:33:45;19.60;99.90
22966;DHT22;11649;48.090;9.754;2022-07-29T15:36:12;19.30;99.90
22966;DHT22;11649;48.090;9.754;2022-07-29T15:38:59;19.10;99.90
22966;DHT22;11649;48.090;9.754;2022-07-29T15:41:26;19.10;99.90
22966;DHT22;11649;48.090;9.754;2022-07-29T15:43:53;19.10;99.90
22966;DHT22;11649;48.090;9.754;2022-07-29T15:46:20;19.10;99.90
22966;DHT22;11649;48.090;9.754;2022-07-29T15:49:06;19.30;99.90
22966;DHT22;11649;48.090;9.754;2022-07-29T15:51:33;19.40;99.90
22966;DHT22;11649;48.090;9.754;2022-07-29T15:54:02;19.40;99.90
22966;DHT22;11649;48.090;9.754;2022-07-29T15:56:29;19.40;99.90
22966;DHT22;11649;48.090;9.754;2022-07-29T15:58:56;19.30;99.90
22966;DHT22;11649;48.090;9.754;2022-07-29T16:01:24;19.20;99.90
22966;DHT22;11649;48.090;9.754;2022-07-29T16:03:52;19.30;99.90
22966;DHT22;11649;48.090;9.754;2022-07-29T16:06:19;19.30;99.90
22966;DHT22;11649;48.090;9.754;2022-07-29T16:08:46;19.40;99.90
22966;DHT22;11649;48.090;9.754;2022-07-29T16:11:13;19.50;99.90
22966;DHT22;11649;48.090;9.754;2022-07-29T16:13:39;19.60;99.90
22966;DHT22;11649;48.090;9.754;2022-07-29T16:16:06;19.70;99.90
22966;DHT22;11649;48.090;9.754;2022-07-29T16:18:34;19.50;99.90
22966;DHT22;11649;48.090;9.754;2022-07-29T16:21:01;19.50;99.90
22966;DHT22;11649;48.090;9.754;2022-07-29T16:23:28;19.50;99.90
22966;DHT22;11649;48.090;9.754;2022-07-29T16:25:55;19.60;99.90
22966;DHT22;11649;48.090;9.754;2022-07-29T16:28:27;19.40;99.90
22966;DHT22;11649;48.090;9.754;2022-07-29T16:30:54;19.30;99.90
22966;DHT22;11649;48.090;9.754;2022-07-29T16:33:21;19.20;99.90
22966;DHT22;11649;48.090;9.754;2022-07-29T16:35:48;19.10;99.90
22966;DHT22;11649;48.090;9.754;2022-07-29T16:38:15;19.00;99.90
22966;DHT22;11649;48.090;9.754;2022-07-29T16:40:43;19.20;99.90
22966;DHT22;11649;48.090;9.754;2022-07-29T16:43:10;19.00;99.90
22966;DHT22;11649;48.090;9.754;2022-07-29T16:45:37;19.00;99.90